Time;durP1;ratioP1;P1;durP2;ratioP2;P2;SDS_P1;SDS_P2;PMS_P1;PMS_P2;Temp;Humidity;BMP_temperature;BMP_pressure;BME280_temperature;BME280_humidity;BME280_pressure;Samples;Min_cycle;Max_cycle;Signal;HPM_P1;HPM_P2
2023/06/03 00:01:12;;;;;;;7.67;5.30;;;15.20;1.00;;;;;;5135314;27;20424;-49
2023/06/03 00:03:39;;;;;;;9.03;5.63;;;15.20;1.00;;;;;;5130964;27;20180;-47
2023/06/03 00:06:05;;;;;;;7.27;5.50;;;15.20;1.00;;;;;;5123481;27;20187;-49
2023/06/03 00:08:31;;;;;;;6.97;5.27;;;15.10;1.00;;;;;;5146682;27;20465;-47
2023/06/03 00:10:57;;;;;;;6.40;5.70;;;15.00;1.00;;;;;;5144443;27;20427;-47
2023/06/03 00:13:23;;;;;;;9.80;6.00;;;15.00;1.00;;;;;;5150135;27;20831;-47
2023/06/03 00:15:48;;;;;;;6.93;5.47;;;15.00;1.00;;;;;;5138348;27;20295;-47
2023/06/03 00:18:15;;;;;;;7.77;5.40;;;15.00;1.00;;;;;;5137833;27;20186;-45
2023/06/03 00:20:47;;;;;;;8.60;5.53;;;15.00;1.00;;;;;;5137477;27;20507;-48
2023/06/03 00:23:13;;;;;;;14.73;5.93;;;15.00;1.00;;;;;;5135703;27;20902;-47
2023/06/03 00:25:38;;;;;;;8.67;5.10;;;15.00;1.00;;;;;;5117026;27;20432;-48
2023/06/03 00:28:04;;;;;;;7.40;5.20;;;15.00;1.00;;;;;;5133688;27;20727;-48
2023/06/03 00:30:31;;;;;;;8.70;5.10;;;14.90;1.00;;;;;;5134596;27;20186;-48
2023/06/03 00:32:56;;;;;;;7.20;5.30;;;14.90;1.00;;;;;;5133331;27;20470;-47
2023/06/03 00:35:22;;;;;;;7.90;5.90;;;14.90;1.00;;;;;;5133014;27;20460;-48
2023/06/03 00:37:47;;;;;;;7.53;5.50;;;14.90;1.00;;;;;;5131953;27;20461;-48
2023/06/03 00:40:14;;;;;;;6.20;5.57;;;14.90;1.00;;;;;;5135119;27;20271;-51
2023/06/03 00:42:40;;;;;;;6.43;5.10;;;14.90;1.00;;;;;;5137647;27;20416;-49
2023/06/03 00:45:06;;;;;;;8.63;5.57;;;14.90;1.00;;;;;;5136039;27;20179;-49
2023/06/03 00:47:32;;;;;;;7.50;5.80;;;14.90;1.00;;;;;;5137812;27;20226;-49
2023/06/03 00:49:57;;;;;;;12.13;6.40;;;14.90;1.00;;;;;;5137787;27;20839;-47
2023/06/03 00:52:24;;;;;;;7.47;5.80;;;14.90;1.00;;;;;;5120203;27;20255;-46
2023/06/03 00:54:51;;;;;;;6.57;4.97;;;14.80;1.00;;;;;;5138329;27;20203;-47
2023/06/03 00:57:18;;;;;;;6.90;5.23;;;14.80;1.00;;;;;;5138926;27;20492;-47
2023/06/03 00:59:43;;;;;;;8.03;5.10;;;14.70;1.00;;;;;;5101861;27;20448;-47
2023/06/03 01:02:10;;;;;;;9.13;5.20;;;14.70;1.00;;;;;;5138599;27;20563;-47
2023/06/03 01:04:37;;;;;;;8.33;5.30;;;14.70;1.00;;;;;;5138306;27;20206;-48
2023/06/03 01:07:27;;;;;;;5.60;4.97;;;14.70;1.00;;;;;;5118801;27;20487;-48
2023/06/03 01:10:34;;;;;;;7.53;5.13;;;14.60;1.00;;;;;;5118815;27;20712;-47
2023/06/03 01:13:06;;;;;;;12.63;5.63;;;14.60;1.00;;;;;;5127615;27;20432;-46
2023/06/03 01:15:34;;;;;;;11.80;5.70;;;14.60;1.00;;;;;;5119917;27;20435;-47
2023/06/03 01:18:03;;;;;;;12.10;6.70;;;14.60;1.00;;;;;;5120064;27;20405;-48
2023/06/03 01:20:29;;;;;;;9.90;5.10;;;14.50;1.00;;;;;;5138131;27;20425;-47
2023/06/03 01:23:28;;;;;;;11.23;6.03;;;14.50;1.00;;;;;;5137591;27;20468;-47
2023/06/03 01:25:57;;;;;;;11.73;5.87;;;14.50;1.00;;;;;;5137370;27;20519;-48
2023/06/03 01:28:27;;;;;;;12.33;5.20;;;14.40;1.00;;;;;;5136723;27;20610;-46
2023/06/03 01:30:54;;;;;;;10.93;5.40;;;14.50;1.00;;;;;;5136669;27;20428;-48
2023/06/03 01:33:21;;;;;;;6.40;4.73;;;14.50;1.00;;;;;;5136999;27;20409;-46
2023/06/03 01:35:51;;;;;;;7.80;5.27;;;14.40;1.00;;;;;;5118125;27;20425;-48
2023/06/03 01:38:17;;;;;;;6.47;4.80;;;14.40;1.00;;;;;;5118498;27;20448;-47
2023/06/03 01:40:43;;;;;;;9.27;5.10;;;14.40;1.00;;;;;;5137722;27;20864;-51
2023/06/03 01:43:08;;;;;;;9.67;5.17;;;14.40;1.00;;;;;;5119629;27;20347;-47
2023/06/03 01:45:34;;;;;;;6.00;5.17;;;14.40;1.00;;;;;;5119652;27;20416;-48
2023/06/03 01:48:00;;;;;;;9.60;5.80;;;14.40;1.00;;;;;;5136830;27;20696;-46
2023/06/03 01:50:26;;;;;;;6.90;5.40;;;14.30;1.00;;;;;;5136449;27;20182;-47
2023/06/03 01:52:52;;;;;;;6.03;5.13;;;14.30;1.00;;;;;;5137603;27;20309;-48
2023/06/03 01:55:17;;;;;;;8.00;5.47;;;14.30;1.00;;;;;;5137392;27;20515;-48
2023/06/03 01:57:43;;;;;;;7.20;5.23;;;14.30;1.00;;;;;;5118661;27;20602;-48
2023/06/03 02:00:11;;;;;;;7.50;5.40;;;14.30;1.00;;;;;;5118616;28;20420;-48
2023/06/03 02:02:36;;;;;;;8.87;5.17;;;14.30;1.00;;;;;;5136104;27;20183;-48
2023/06/03 02:05:03;;;;;;;7.70;5.57;;;14.20;1.00;;;;;;5136624;27;20440;-48
2023/06/03 02:07:31;;;;;;;8.90;5.03;;;14.20;1.00;;;;;;5135614;27;20267;-48
2023/06/03 02:09:58;;;;;;;7.10;5.07;;;14.20;1.00;;;;;;5136048;28;20429;-47
2023/06/03 02:12:23;;;;;;;8.77;5.60;;;14.20;1.00;;;;;;5136530;28;20420;-49
2023/06/03 02:14:56;;;;;;;6.90;5.40;;;14.10;1.00;;;;;;5136031;28;20428;-48
2023/06/03 02:17:24;;;;;;;9.33;6.33;;;14.10;1.00;;;;;;5102455;28;20183;-47
2023/06/03 02:19:50;;;;;;;6.83;5.70;;;14.10;1.00;;;;;;5118221;28;20439;-47
2023/06/03 02:22:16;;;;;;;7.07;5.23;;;14.10;1.00;;;;;;5135666;28;20483;-49
2023/06/03 02:24:41;;;;;;;9.20;5.80;;;14.10;1.00;;;;;;5135284;28;20485;-47
2023/06/03 02:27:08;;;;;;;8.70;5.53;;;14.10;1.00;;;;;;5135578;28;20283;-46
2023/06/03 02:29:34;;;;;;;8.83;6.03;;;14.10;1.00;;;;;;5134791;28;20183;-47
2023/06/03 02:32:00;;;;;;;5.80;4.87;;;14.10;1.00;;;;;;5135753;28;20690;-47
2023/06/03 02:34:26;;;;;;;8.97;5.03;;;14.10;1.00;;;;;;5137178;28;20258;-47
2023/06/03 02:36:52;;;;;;;6.10;5.13;;;14.10;1.00;;;;;;5136532;28;20939;-55
2023/06/03 02:39:18;;;;;;;8.23;5.00;;;14.30;36.10;;;;;;5136366;28;20481;-54
2023/06/03 02:41:46;;;;;;;7.33;5.13;;;14.80;1.00;;;;;;5136446;28;20557;-54
2023/06/03 02:44:16;;;;;;;7.63;5.00;;;15.10;1.00;;;;;;5136848;28;20424;-53
2023/06/03 02:46:42;;;;;;;6.50;4.77;;;15.40;1.00;;;;;;5138218;27;20428;-54
2023/06/03 02:49:08;;;;;;;10.50;5.50;;;15.70;1.00;;;;;;5135305;27;20506;-53
2023/06/03 02:51:36;;;;;;;7.23;5.03;;;15.90;1.00;;;;;;5120443;28;20497;-56
2023/06/03 02:54:02;;;;;;;8.00;4.93;;;16.00;1.00;;;;;;5119243;28;20409;-53
2023/06/03 02:56:28;;;;;;;10.30;5.23;;;16.10;1.00;;;;;;5120312;28;20439;-54
2023/06/03 02:58:54;;;;;;;8.80;4.80;;;16.20;1.00;;;;;;5120184;28;20563;-52
2023/06/03 03:01:20;;;;;;;6.47;4.33;;;16.30;1.00;;;;;;5136039;27;20564;-57
2023/06/03 03:03:46;;;;;;;7.37;4.70;;;16.40;1.00;;;;;;5122650;27;20484;-54
2023/06/03 03:06:12;;;;;;;10.50;5.20;;;16.40;1.00;;;;;;5139665;27;20397;-51
2023/06/03 03:08:38;;;;;;;9.83;4.80;;;16.40;1.00;;;;;;5140016;27;20227;-54
2023/06/03 03:11:05;;;;;;;9.77;4.90;;;16.40;1.00;;;;;;5140451;27;20833;-54
2023/06/03 03:13:31;;;;;;;6.83;5.03;;;16.40;1.00;;;;;;5140479;27;20293;-52
2023/06/03 03:15:57;;;;;;;5.07;4.00;;;16.40;1.00;;;;;;5139259;27;20528;-56
2023/06/03 03:18:22;;;;;;;5.63;4.40;;;16.40;1.00;;;;;;5139929;27;20187;-51
2023/06/03 03:20:48;;;;;;;6.43;4.67;;;16.40;1.00;;;;;;5137944;27;20862;-55
2023/06/03 03:23:14;;;;;;;6.53;4.60;;;16.30;1.00;;;;;;5117283;28;20227;-51
2023/06/03 03:25:40;;;;;;;8.47;4.70;;;16.30;1.00;;;;;;5117837;28;20199;-52
2023/06/03 03:28:06;;;;;;;8.10;5.40;;;16.30;1.00;;;;;;5117060;28;20473;-54
2023/06/03 03:30:32;;;;;;;7.00;5.00;;;16.30;1.00;;;;;;5118561;28;20834;-52
2023/06/03 03:32:59;;;;;;;7.47;5.10;;;16.30;1.00;;;;;;5118436;28;20402;-51
2023/06/03 03:35:25;;;;;;;7.33;4.60;;;16.40;1.00;;;;;;5100446;28;20425;-57
2023/06/03 03:37:59;;;;;;;6.70;4.63;;;16.40;1.00;;;;;;5098744;28;20433;-54
2023/06/03 03:40:25;;;;;;;8.27;5.30;;;16.30;1.00;;;;;;5116230;28;20458;-56
2023/06/03 03:42:53;;;;;;;6.37;4.80;;;16.30;1.00;;;;;;5098998;28;20449;-52
2023/06/03 03:45:20;;;;;;;5.97;5.37;;;16.30;1.00;;;;;;5116782;28;20410;-56
2023/06/03 03:47:50;;;;;;;7.37;4.67;;;16.30;1.00;;;;;;5081211;28;20480;-52
2023/06/03 03:50:29;;;;;;;9.23;5.70;;;16.30;1.00;;;;;;5115584;28;21025;-52
2023/06/03 03:52:58;;;;;;;6.20;4.60;;;16.20;1.00;;;;;;5097712;28;20473;-53
2023/06/03 03:55:24;;;;;;;5.80;5.20;;;16.20;1.00;;;;;;5098928;28;20430;-55
2023/06/03 03:57:50;;;;;;;7.57;5.10;;;16.20;1.00;;;;;;5097648;28;20444;-53
2023/06/03 04:00:17;;;;;;;6.83;5.83;;;16.20;1.00;;;;;;5098229;28;20430;-52
2023/06/03 04:02:43;;;;;;;8.20;5.20;;;16.30;1.00;;;;;;5098680;28;20271;-55
2023/06/03 04:05:13;;;;;;;6.23;5.30;;;16.20;1.00;;;;;;5098964;28;20532;-52
2023/06/03 04:07:40;;;;;;;6.87;5.10;;;16.20;1.00;;;;;;5117148;28;20215;-53
2023/06/03 04:10:09;;;;;;;6.90;5.10;;;16.20;1.00;;;;;;5117224;28;20690;-54
2023/06/03 04:12:36;;;;;;;6.57;5.47;;;16.10;1.00;;;;;;5098815;28;20422;-55
2023/06/03 04:15:02;;;;;;;9.03;5.17;;;16.10;1.00;;;;;;5099203;28;20505;-55
2023/06/03 04:17:30;;;;;;;7.90;4.77;;;16.10;1.00;;;;;;5117410;28;20703;-53
2023/06/03 04:19:56;;;;;;;5.83;5.10;;;16.10;1.00;;;;;;5115513;28;20854;-54
2023/06/03 04:22:23;;;;;;;8.73;5.17;;;16.20;1.00;;;;;;5076456;28;1104435;-53
2023/06/03 04:24:57;;;;;;;9.23;5.23;;;16.30;1.00;;;;;;5117468;28;20311;-54
2023/06/03 04:27:23;;;;;;;5.63;4.97;;;16.40;1.00;;;;;;5116096;28;20453;-56
2023/06/03 04:29:49;;;;;;;7.70;5.20;;;16.40;1.00;;;;;;5115672;28;20453;-54
2023/06/03 04:32:15;;;;;;;7.27;5.57;;;16.40;1.00;;;;;;5116001;28;20472;-54
2023/06/03 04:34:55;;;;;;;6.07;5.10;;;16.50;1.00;;;;;;5116230;28;20461;-54
2023/06/03 04:37:22;;;;;;;7.27;5.83;;;16.50;1.00;;;;;;5114004;28;20245;-52
2023/06/03 04:39:51;;;;;;;6.60;5.20;;;16.60;1.00;;;;;;5114777;28;20402;-52
2023/06/03 04:42:17;;;;;;;5.63;4.80;;;16.60;1.00;;;;;;5114049;28;20631;-52
2023/06/03 04:44:43;;;;;;;7.00;5.10;;;16.60;1.00;;;;;;5115109;28;20418;-54
2023/06/03 04:47:10;;;;;;;7.87;5.00;;;16.70;1.00;;;;;;5115117;28;20746;-51
2023/06/03 04:49:39;;;;;;;5.70;5.20;;;16.80;1.00;;;;;;5116850;28;20259;-55
2023/06/03 04:52:09;;;;;;;7.50;5.50;;;16.90;1.00;;;;;;5100451;28;20443;-52
2023/06/03 04:54:38;;;;;;;8.33;5.60;;;16.80;1.00;;;;;;5116596;28;20496;-56
2023/06/03 04:57:04;;;;;;;8.50;4.63;;;16.90;1.00;;;;;;5116067;28;20497;-51
2023/06/03 04:59:31;;;;;;;6.20;5.20;;;17.00;1.00;;;;;;5115880;28;20457;-55
2023/06/03 05:01:56;;;;;;;8.60;5.60;;;17.00;1.00;;;;;;5116956;28;20867;-51
2023/06/03 05:04:22;;;;;;;7.00;5.50;;;17.00;1.00;;;;;;5117464;28;20460;-52
2023/06/03 05:06:48;;;;;;;8.97;4.87;;;17.00;1.00;;;;;;5116482;28;20199;-55
2023/06/03 05:09:14;;;;;;;6.67;5.43;;;17.00;1.00;;;;;;5115533;28;20249;-55
2023/06/03 05:11:40;;;;;;;6.53;5.50;;;17.00;1.00;;;;;;5116018;28;20410;-57
2023/06/03 05:14:07;;;;;;;7.00;5.30;;;16.90;1.00;;;;;;5115994;28;20451;-52
2023/06/03 05:16:33;;;;;;;7.00;5.40;;;17.00;1.00;;;;;;5115166;28;20514;-55
2023/06/03 05:18:58;;;;;;;5.60;5.07;;;17.00;1.00;;;;;;5112825;28;20484;-54
2023/06/03 05:21:24;;;;;;;7.90;5.70;;;17.00;1.00;;;;;;5113795;28;20713;-54
2023/06/03 05:23:49;;;;;;;5.23;4.53;;;17.10;1.00;;;;;;5114197;28;20310;-54
2023/06/03 05:26:15;;;;;;;7.70;5.50;;;17.10;1.00;;;;;;5114903;28;20175;-55
2023/06/03 05:28:41;;;;;;;6.30;4.93;;;17.20;1.00;;;;;;5114655;28;20307;-56
2023/06/03 05:31:06;;;;;;;10.13;5.50;;;17.20;1.00;;;;;;5114565;28;20260;-52
2023/06/03 05:33:35;;;;;;;8.17;5.90;;;17.30;1.00;;;;;;5113333;28;20448;-53
2023/06/03 05:36:00;;;;;;;7.17;4.90;;;17.30;1.00;;;;;;5115313;28;20290;-54
2023/06/03 05:38:27;;;;;;;7.63;5.50;;;17.40;1.00;;;;;;5115606;28;20536;-53
2023/06/03 05:40:53;;;;;;;10.37;5.40;;;17.50;1.00;;;;;;5115952;28;20195;-55
2023/06/03 05:43:19;;;;;;;6.30;4.80;;;17.50;1.00;;;;;;5116816;28;20460;-55
2023/06/03 05:45:45;;;;;;;9.47;5.10;;;17.60;1.00;;;;;;5116387;28;20257;-55
2023/06/03 05:48:11;;;;;;;8.33;5.00;;;17.80;1.00;;;;;;5115124;28;20493;-54
2023/06/03 05:50:38;;;;;;;7.53;4.70;;;17.80;1.00;;;;;;5115839;28;20616;-55
2023/06/03 05:53:04;;;;;;;7.50;5.37;;;17.90;1.00;;;;;;5116513;28;20192;-55
2023/06/03 05:55:30;;;;;;;6.43;5.07;;;18.00;1.00;;;;;;5116479;28;20422;-55
2023/06/03 05:57:56;;;;;;;8.73;5.30;;;18.00;1.00;;;;;;5116316;28;20517;-54
2023/06/03 06:00:22;;;;;;;6.27;4.70;;;18.10;1.00;;;;;;5114832;28;20504;-52
2023/06/03 06:02:47;;;;;;;7.63;5.13;;;18.10;1.00;;;;;;5113421;28;20184;-54
2023/06/03 06:05:15;;;;;;;9.23;5.73;;;18.10;1.00;;;;;;5112741;28;20290;-55
2023/06/03 06:07:43;;;;;;;7.47;5.80;;;18.20;1.00;;;;;;5113862;28;20312;-56
2023/06/03 06:10:10;;;;;;;11.70;6.40;;;18.30;1.00;;;;;;5114132;28;20459;-55
2023/06/03 06:12:35;;;;;;;7.77;4.70;;;18.40;1.00;;;;;;5112792;28;20706;-52
2023/06/03 06:15:01;;;;;;;8.00;4.83;;;18.40;1.00;;;;;;5114151;28;20824;-55
2023/06/03 06:17:26;;;;;;;6.70;5.67;;;18.40;1.00;;;;;;5113167;28;20191;-52
2023/06/03 06:19:52;;;;;;;9.63;6.07;;;18.40;1.00;;;;;;5115048;28;20202;-55
2023/06/03 06:22:18;;;;;;;7.23;5.57;;;18.50;1.00;;;;;;5117308;28;20247;-55
2023/06/03 06:24:43;;;;;;;11.57;5.90;;;18.60;1.00;;;;;;5118575;28;20584;-55
2023/06/03 06:27:09;;;;;;;7.93;5.20;;;18.80;1.00;;;;;;5119056;28;20199;-55
2023/06/03 06:29:35;;;;;;;5.73;5.00;;;18.90;1.00;;;;;;5117565;28;20194;-55
2023/06/03 06:32:00;;;;;;;7.40;5.80;;;18.90;1.00;;;;;;5117955;28;20187;-54
2023/06/03 06:34:29;;;;;;;6.80;5.07;;;19.10;1.00;;;;;;5119984;28;20241;-56
2023/06/03 06:36:56;;;;;;;10.23;5.97;;;19.20;1.00;;;;;;5120678;28;20429;-54
2023/06/03 06:39:27;;;;;;;7.03;5.80;;;19.40;1.00;;;;;;5120541;28;20421;-54
2023/06/03 06:41:52;;;;;;;6.57;5.00;;;19.50;1.00;;;;;;5119290;28;20441;-51
2023/06/03 06:44:18;;;;;;;7.80;5.57;;;19.60;1.00;;;;;;5085269;28;20876;-53
2023/06/03 06:46:44;;;;;;;7.23;5.20;;;19.70;1.00;;;;;;5121002;28;20422;-55
2023/06/03 06:49:10;;;;;;;5.97;5.37;;;19.80;1.00;;;;;;5102757;28;20199;-54
2023/06/03 06:51:36;;;;;;;8.13;5.80;;;19.90;1.00;;;;;;5102974;28;20489;-52
2023/06/03 06:54:01;;;;;;;6.97;5.80;;;19.90;1.00;;;;;;5120503;28;20266;-53
2023/06/03 06:56:27;;;;;;;6.60;5.30;;;19.90;1.00;;;;;;5120298;28;20826;-55
2023/06/03 06:58:53;;;;;;;8.47;5.83;;;20.00;1.00;;;;;;5101251;28;20220;-57
2023/06/03 07:01:19;;;;;;;9.07;5.80;;;20.20;1.00;;;;;;5118292;28;20276;-57
2023/06/03 07:03:44;;;;;;;9.03;5.93;;;20.30;1.00;;;;;;5119150;28;20513;-52
2023/06/03 07:06:10;;;;;;;8.97;6.40;;;20.30;1.00;;;;;;5118516;28;20419;-55
2023/06/03 07:08:35;;;;;;;13.03;7.03;;;20.10;1.00;;;;;;5118969;28;20609;-55
2023/06/03 07:11:03;;;;;;;10.80;6.30;;;20.10;1.00;;;;;;5117915;28;20203;-53
2023/06/03 07:13:28;;;;;;;9.10;6.97;;;20.20;1.00;;;;;;5116659;28;20210;-54
2023/06/03 07:15:55;;;;;;;10.90;6.37;;;20.20;1.00;;;;;;5117889;28;20700;-55
2023/06/03 07:18:21;;;;;;;11.17;6.10;;;20.10;1.00;;;;;;5118451;28;20202;-55
2023/06/03 07:20:48;;;;;;;8.00;6.40;;;20.20;1.00;;;;;;5118745;28;20460;-55
2023/06/03 07:23:21;;;;;;;6.93;6.23;;;20.40;1.00;;;;;;5119403;28;20444;-56
2023/06/03 07:25:51;;;;;;;6.70;5.90;;;20.50;1.00;;;;;;5119813;28;20437;-52
2023/06/03 07:28:27;;;;;;;8.27;6.10;;;20.80;1.00;;;;;;5119268;28;20812;-52
2023/06/03 07:30:52;;;;;;;9.20;6.50;;;21.10;1.00;;;;;;5118725;28;20433;-53
2023/06/03 07:33:26;;;;;;;11.53;6.43;;;21.20;1.00;;;;;;5116458;28;20502;-52
2023/06/03 07:36:00;;;;;;;6.10;5.60;;;21.20;1.00;;;;;;5116488;28;20190;-52
2023/06/03 07:38:37;;;;;;;8.33;5.70;;;21.10;1.00;;;;;;5116951;28;20437;-54
2023/06/03 07:41:03;;;;;;;11.20;6.20;;;21.10;1.00;;;;;;5117676;28;20440;-55
2023/06/03 07:43:28;;;;;;;8.10;6.50;;;21.30;1.00;;;;;;5116992;28;20433;-55
2023/06/03 07:45:54;;;;;;;10.13;7.00;;;21.50;1.00;;;;;;5116491;28;20796;-54
2023/06/03 07:48:20;;;;;;;10.10;7.13;;;21.80;1.00;;;;;;5117295;28;20785;-55
2023/06/03 07:50:47;;;;;;;10.83;6.67;;;21.90;1.00;;;;;;5100716;28;20211;-51
2023/06/03 07:53:21;;;;;;;10.33;6.37;;;22.10;1.00;;;;;;5098844;28;20445;-54
2023/06/03 07:55:47;;;;;;;7.20;6.50;;;22.00;1.00;;;;;;5118059;28;20744;-54
2023/06/03 07:58:13;;;;;;;8.93;6.30;;;21.90;1.00;;;;;;5099775;28;20432;-55
2023/06/03 08:00:43;;;;;;;6.27;5.67;;;21.80;1.00;;;;;;5118074;28;20514;-52
2023/06/03 08:03:08;;;;;;;8.80;6.63;;;22.00;1.00;;;;;;5118344;28;20445;-52
2023/06/03 08:05:35;;;;;;;8.77;6.70;;;22.00;1.00;;;;;;5117162;28;20464;-54
2023/06/03 08:08:03;;;;;;;8.40;6.27;;;22.00;1.00;;;;;;5117241;28;20234;-53
2023/06/03 08:10:29;;;;;;;8.60;6.90;;;22.00;1.00;;;;;;5118887;28;20433;-56
2023/06/03 08:12:54;;;;;;;7.50;6.40;;;21.80;1.00;;;;;;5115318;28;20688;-52
2023/06/03 08:15:28;;;;;;;10.33;6.70;;;21.90;1.00;;;;;;5112560;28;20183;-56
2023/06/03 08:17:54;;;;;;;8.93;6.63;;;22.10;1.00;;;;;;5116178;28;20585;-52
2023/06/03 08:20:27;;;;;;;8.43;6.50;;;22.30;1.00;;;;;;5115812;28;20740;-52
2023/06/03 08:22:53;;;;;;;10.40;7.13;;;22.60;1.00;;;;;;5115847;28;20992;-52
2023/06/03 08:25:19;;;;;;;12.63;9.10;;;22.80;1.00;;;;;;5116059;28;20886;-51
2023/06/03 08:27:45;;;;;;;11.40;6.43;;;22.80;1.00;;;;;;5115847;28;20508;-54
2023/06/03 08:30:14;;;;;;;8.30;7.17;;;22.80;1.00;;;;;;5116914;28;20180;-53
2023/06/03 08:32:41;;;;;;;8.97;6.20;;;22.60;1.00;;;;;;5114921;28;20429;-56
2023/06/03 08:35:07;;;;;;;8.00;6.67;;;22.70;1.00;;;;;;5118374;28;20436;-54
2023/06/03 08:37:33;;;;;;;7.80;6.57;;;22.90;1.00;;;;;;5115413;28;20506;-55
2023/06/03 08:40:13;;;;;;;6.93;6.20;;;23.20;1.00;;;;;;5117108;28;20838;-54
2023/06/03 08:42:43;;;;;;;7.77;7.07;;;23.70;1.00;;;;;;5114757;28;20171;-53
2023/06/03 08:45:10;;;;;;;6.27;5.70;;;24.10;1.00;;;;;;5115765;28;20702;-54
2023/06/03 08:47:57;;;;;;;11.40;7.60;;;24.40;1.00;;;;;;5115143;28;20481;-54
2023/06/03 08:50:27;;;;;;;9.93;7.10;;;24.70;1.00;;;;;;5116799;28;20421;-56
2023/06/03 08:52:53;;;;;;;11.67;7.10;;;24.90;1.00;;;;;;5098081;28;20425;-56
2023/06/03 08:55:20;;;;;;;8.67;6.37;;;25.20;1.00;;;;;;5114652;28;20433;-55
2023/06/03 08:57:51;;;;;;;8.50;6.20;;;25.30;1.00;;;;;;5114345;28;20421;-57
2023/06/03 09:00:23;;;;;;;6.80;6.17;;;25.40;1.00;;;;;;5096130;28;20406;-53
2023/06/03 09:02:50;;;;;;;7.70;6.90;;;25.60;1.00;;;;;;5116339;28;20498;-53
2023/06/03 09:05:16;;;;;;;8.30;6.97;;;25.50;1.00;;;;;;5116352;28;20735;-58
2023/06/03 09:07:44;;;;;;;9.33;6.17;;;25.30;1.00;;;;;;5096763;28;20480;-52
2023/06/03 09:10:10;;;;;;;10.33;7.30;;;25.30;1.00;;;;;;5116049;28;20614;-57
2023/06/03 09:12:37;;;;;;;9.53;7.10;;;25.80;1.00;;;;;;5098313;28;20406;-55
2023/06/03 09:15:04;;;;;;;7.60;6.90;;;26.00;1.00;;;;;;5115693;28;20413;-55
2023/06/03 09:17:30;;;;;;;7.30;6.17;;;26.00;1.00;;;;;;5114969;28;20445;-57
2023/06/03 09:20:01;;;;;;;8.30;6.50;;;26.20;1.00;;;;;;5096279;28;20425;-53
2023/06/03 09:22:27;;;;;;;12.30;8.60;;;26.50;1.00;;;;;;5096380;28;20492;-55
2023/06/03 09:24:53;;;;;;;8.63;7.00;;;26.70;1.00;;;;;;5097782;28;20438;-56
2023/06/03 09:27:18;;;;;;;8.30;7.50;;;26.60;1.00;;;;;;5097735;28;20575;-54
2023/06/03 09:29:44;;;;;;;7.13;6.03;;;26.60;1.00;;;;;;5115446;28;20447;-53
2023/06/03 09:32:10;;;;;;;9.30;7.10;;;26.80;1.00;;;;;;5124905;27;20197;-56
2023/06/03 09:34:36;;;;;;;13.33;7.97;;;27.20;1.00;;;;;;5137525;27;20270;-55
2023/06/03 09:37:11;;;;;;;8.10;7.33;;;27.60;1.00;;;;;;5135234;27;20195;-55
2023/06/03 09:39:37;;;;;;;8.27;7.20;;;27.80;1.00;;;;;;5134724;27;20404;-56
2023/06/03 09:42:03;;;;;;;7.70;7.00;;;27.90;1.00;;;;;;5135775;27;20504;-55
2023/06/03 09:44:49;;;;;;;9.10;7.50;;;28.10;1.00;;;;;;5135044;27;20738;-55
2023/06/03 09:47:18;;;;;;;10.33;6.83;;;28.30;1.00;;;;;;5135776;27;20475;-56
2023/06/03 09:50:06;;;;;;;7.70;6.90;;;28.50;1.00;;;;;;5118421;27;20428;-56
2023/06/03 09:52:33;;;;;;;10.23;6.90;;;28.40;1.00;;;;;;5117568;27;20424;-56
2023/06/03 09:55:03;;;;;;;8.27;7.40;;;28.60;1.00;;;;;;5137854;27;20452;-53
2023/06/03 09:57:29;;;;;;;8.47;7.77;;;28.80;1.00;;;;;;5138188;27;20408;-54
2023/06/03 10:00:07;;;;;;;10.13;6.80;;;29.00;1.00;;;;;;5138011;27;20404;-54
2023/06/03 10:02:43;;;;;;;7.80;6.53;;;29.30;1.00;;;;;;5136298;27;20676;-56
2023/06/03 10:05:28;;;;;;;8.97;6.63;;;29.40;1.00;;;;;;5118316;27;20432;-57
2023/06/03 10:07:55;;;;;;;10.00;7.57;;;29.40;1.00;;;;;;5118298;28;20487;-56
2023/06/03 10:10:21;;;;;;;9.40;6.87;;;29.50;1.00;;;;;;5117462;27;20590;-57
2023/06/03 10:12:48;;;;;;;7.93;7.00;;;29.70;1.00;;;;;;5115980;28;20882;-56
2023/06/03 10:15:32;;;;;;;7.63;6.60;;;29.90;1.00;;;;;;5118448;28;20409;-54
2023/06/03 10:17:57;;;;;;;9.43;7.63;;;30.20;1.00;;;;;;5101036;28;20544;-52
2023/06/03 10:20:39;;;;;;;10.40;7.53;;;30.60;1.00;;;;;;5136868;28;20494;-56
2023/06/03 10:23:07;;;;;;;7.63;7.03;;;30.90;1.00;;;;;;5136630;28;20667;-52
2023/06/03 10:25:43;;;;;;;8.70;7.00;;;31.10;1.00;;;;;;5136916;28;20425;-53
2023/06/03 10:28:11;;;;;;;7.67;6.90;;;30.50;1.00;;;;;;5137901;28;20472;-56
2023/06/03 10:30:37;;;;;;;7.60;6.70;;;30.00;1.00;;;;;;5137361;28;20975;-56
2023/06/03 10:33:04;;;;;;;9.87;7.50;;;30.00;1.00;;;;;;5118948;28;20503;-53
2023/06/03 10:35:33;;;;;;;8.50;7.27;;;30.10;1.00;;;;;;5138654;28;20425;-56
2023/06/03 10:38:07;;;;;;;7.83;7.13;;;29.90;1.00;;;;;;5102730;28;20525;-56
2023/06/03 10:40:33;;;;;;;7.87;7.07;;;29.90;1.00;;;;;;5137866;28;20424;-55
2023/06/03 10:42:59;;;;;;;8.23;7.47;;;30.00;1.00;;;;;;5136751;28;20432;-55
2023/06/03 10:45:26;;;;;;;9.77;7.50;;;30.00;1.00;;;;;;5137220;28;20811;-54
2023/06/03 10:47:58;;;;;;;8.10;7.37;;;30.10;1.00;;;;;;5118585;28;20445;-56
2023/06/03 10:50:47;;;;;;;7.50;6.80;;;30.40;1.00;;;;;;5136497;28;20416;-56
2023/06/03 10:53:14;;;;;;;8.93;8.03;;;30.90;1.00;;;;;;5136821;28;20870;-56
2023/06/03 10:55:54;;;;;;;9.17;8.27;;;31.20;1.00;;;;;;5118939;28;20931;-56
2023/06/03 10:58:28;;;;;;;8.57;7.70;;;31.40;1.00;;;;;;5136739;28;20456;-57
2023/06/03 11:01:04;;;;;;;8.50;7.63;;;31.60;1.00;;;;;;5137419;28;20432;-55
2023/06/03 11:03:37;;;;;;;8.63;7.73;;;31.60;1.00;;;;;;5117924;28;20666;-55
2023/06/03 11:06:26;;;;;;;8.70;7.80;;;31.00;1.00;;;;;;5117449;27;20532;-56
2023/06/03 11:09:04;;;;;;;8.73;7.93;;;30.50;1.00;;;;;;5137340;27;20640;-55
2023/06/03 11:11:58;;;;;;;8.50;7.70;;;30.30;1.00;;;;;;5139359;27;20488;-56
2023/06/03 11:14:27;;;;;;;9.37;7.30;;;30.50;1.00;;;;;;5111364;27;20433;-54
2023/06/03 11:16:59;;;;;;;9.60;8.70;;;30.80;1.00;;;;;;5121072;27;20826;-56
2023/06/03 11:19:29;;;;;;;8.60;7.77;;;30.40;1.00;;;;;;5139704;27;20447;-53
2023/06/03 11:21:59;;;;;;;8.63;7.73;;;29.70;1.00;;;;;;5138596;27;20535;-57
2023/06/03 11:24:43;;;;;;;9.53;8.23;;;29.50;1.00;;;;;;5137991;27;20437;-55
2023/06/03 11:27:14;;;;;;;11.13;8.23;;;29.50;1.00;;;;;;5139472;27;20452;-57
2023/06/03 11:29:53;;;;;;;9.27;8.23;;;29.50;1.00;;;;;;5138378;27;20425;-55
2023/06/03 11:32:21;;;;;;;8.77;7.90;;;29.10;1.00;;;;;;5138156;27;20547;-55
2023/06/03 11:34:48;;;;;;;9.47;7.60;;;29.00;1.00;;;;;;5138180;27;20415;-56
2023/06/03 11:37:19;;;;;;;8.70;8.00;;;29.10;1.00;;;;;;5139249;27;20448;-56
2023/06/03 11:40:05;;;;;;;8.60;7.90;;;29.40;1.00;;;;;;5137634;27;20906;-53
2023/06/03 11:42:51;;;;;;;8.90;8.03;;;29.50;1.00;;;;;;5139490;27;20668;-54
2023/06/03 11:45:29;;;;;;;10.90;8.67;;;30.00;1.00;;;;;;5120810;27;20728;-55
2023/06/03 11:48:05;;;;;;;7.93;7.23;;;30.10;1.00;;;;;;5135564;27;20570;-55
2023/06/03 11:50:53;;;;;;;8.37;7.57;;;30.20;1.00;;;;;;5139045;27;20425;-54
2023/06/03 11:53:33;;;;;;;8.87;8.07;;;30.90;1.00;;;;;;5121203;27;20432;-57
2023/06/03 11:56:04;;;;;;;8.07;7.37;;;31.60;1.00;;;;;;5138180;27;20420;-56
2023/06/03 11:58:30;;;;;;;8.43;7.63;;;32.10;1.00;;;;;;5138192;27;20471;-56
2023/06/03 12:01:08;;;;;;;7.57;6.97;;;32.70;1.00;;;;;;5137021;27;20462;-56
2023/06/03 12:03:36;;;;;;;8.27;7.47;;;33.30;1.00;;;;;;5136048;27;20182;-54
2023/06/03 12:06:03;;;;;;;9.60;8.80;;;33.70;1.00;;;;;;5137973;27;20401;-53
2023/06/03 12:09:01;;;;;;;9.47;8.47;;;33.80;1.00;;;;;;5137165;27;20475;-54
2023/06/03 12:11:32;;;;;;;8.60;7.77;;;33.00;1.00;;;;;;5093437;27;20450;-54
2023/06/03 12:13:58;;;;;;;8.17;6.87;;;32.40;1.00;;;;;;5138758;27;20789;-57
2023/06/03 12:16:31;;;;;;;8.63;7.77;;;31.70;1.00;;;;;;5138752;27;20436;-54
2023/06/03 12:18:58;;;;;;;8.10;7.37;;;31.10;1.00;;;;;;5137952;27;20507;-55
2023/06/03 12:21:24;;;;;;;8.60;7.60;;;31.20;1.00;;;;;;5137205;27;20563;-54
2023/06/03 12:23:49;;;;;;;8.77;7.93;;;31.40;1.00;;;;;;5138163;27;20808;-52
2023/06/03 12:26:15;;;;;;;9.70;8.70;;;31.40;1.00;;;;;;5139171;27;20190;-54
2023/06/03 12:28:41;;;;;;;9.23;8.33;;;31.90;1.00;;;;;;5119682;27;20222;-55
2023/06/03 12:31:14;;;;;;;9.10;8.17;;;32.10;1.00;;;;;;5135504;27;20719;-55
2023/06/03 12:33:44;;;;;;;8.83;8.10;;;32.70;1.00;;;;;;5137075;27;20345;-57
2023/06/03 12:36:12;;;;;;;9.50;7.60;;;32.70;1.00;;;;;;5136355;27;20448;-56
2023/06/03 12:38:58;;;;;;;8.80;8.10;;;32.20;1.00;;;;;;5136334;27;20407;-56
2023/06/03 12:41:24;;;;;;;9.47;7.87;;;31.60;1.00;;;;;;5137222;27;20504;-55
2023/06/03 12:43:59;;;;;;;9.73;8.17;;;30.90;1.00;;;;;;5132650;27;20460;-57
2023/06/03 12:46:24;;;;;;;9.80;8.50;;;30.50;1.00;;;;;;5133738;27;20755;-56
2023/06/03 12:48:52;;;;;;;8.30;7.50;;;30.00;1.00;;;;;;5134904;27;20553;-56
2023/06/03 12:51:36;;;;;;;8.93;8.10;;;29.50;1.00;;;;;;5136729;27;20178;-53
2023/06/03 12:54:04;;;;;;;9.07;8.37;;;28.90;1.00;;;;;;5138723;27;20493;-56
2023/06/03 12:56:31;;;;;;;8.87;7.97;;;28.70;1.00;;;;;;5135447;27;20831;-56
2023/06/03 12:58:57;;;;;;;8.77;7.90;;;28.50;1.00;;;;;;5136249;27;20722;-55
2023/06/03 13:01:23;;;;;;;7.90;7.20;;;28.30;1.00;;;;;;5137271;27;20392;-54
2023/06/03 13:03:54;;;;;;;8.73;7.93;;;28.20;1.00;;;;;;5136583;27;20194;-56